首页
METAR-TAF:

METAR-TAF

机场 :

朗維尤, 得克萨斯州, 美国

纬度: 32-23-26N, 经度: 094-42-50W, 海拔: 111米

当前天气观测

该预报发布于54分钟前的10:53 UTC
静风
温度 -3°C
湿度 74%
气压 1029 hPa
能見度: 16.1公里
天空无云

METAR: KGGG 271053Z AUTO 00000KT 10SM CLR M03/M07 A3038 RMK AO2 SLP293 T10281067

时间: 05:47 (11:47 UTC)

预报

该预报发布于27分钟前的11:20 UTC
预报有效从27日的 12点(UTC)到 28日的 12点(UTC)
风速节,风向
能見度: 10公里
天空无云
从 27日的 1400点(UTC)
风速10节,风向西转西南
能見度: 10公里
天空无云
从 28日的 0000点(UTC)
风速5节,风向西南
能見度: 10公里
天空无云

TAF: KGGG 271120Z 2712/2812 00000KT P6SM SKC FM271400 25010KT P6SM SKC FM280000 22005KT P6SM SKC

超过4000个机场的气象观测和天气预报(METAR&TAF报告)。

可查询的气象台以黄色和红色小点在地图上表示。

将鼠标移到小点上方,可查看气象台名称。

然后点击查看天气观测和预报。

如需切换地图:点击带黑十字的绿色按钮放大地图;点击带横线的绿色按钮缩小地图;或者点击绿色箭头查看邻近地区的地图。


METAR-TAF: